createdAt,value
2023-03-20T00:03:45.695Z,99415.78
2023-03-20T00:08:50.603Z,99358.03
2023-03-20T00:13:55.989Z,99394.53
2023-03-20T00:18:58.823Z,99410.25
2023-03-20T00:24:02.089Z,99393.56
2023-03-20T00:29:06.768Z,99420.53
2023-03-20T00:34:17.304Z,99421.84
2023-03-20T00:39:22.281Z,99393.50
2023-03-20T00:44:36.719Z,99412.91
2023-03-20T00:49:39.144Z,99403.34
2023-03-20T01:00:21.849Z,99361.06
2023-03-20T01:05:26.011Z,99403.09
2023-03-20T01:10:33.003Z,99420.16
2023-03-20T01:15:36.899Z,99438.69
2023-03-20T01:20:39.442Z,99400.19
2023-03-20T01:25:42.455Z,99370.63
2023-03-20T01:30:45.953Z,99407.44
2023-03-20T01:35:50.156Z,99409.94
2023-03-20T01:41:03.599Z,99367.41
2023-03-20T01:46:30.046Z,99444.53
2023-03-20T01:51:40.744Z,99431.19
2023-03-20T01:56:59.682Z,99431.19
2023-03-20T02:02:03.004Z,99457.72
2023-03-20T02:07:07.971Z,99473.97
2023-03-20T02:12:17.448Z,99452.75
2023-03-20T02:17:20.379Z,99416.44
2023-03-20T02:22:54.390Z,99449.41
2023-03-20T02:28:34.540Z,99416.91
2023-03-20T02:34:04.458Z,99432.50
2023-03-20T02:39:21.940Z,99445.88
2023-03-20T02:44:46.708Z,99442.59
2023-03-20T02:49:57.651Z,99433.75
2023-03-20T02:55:28.969Z,99438.88
2023-03-20T03:00:47.737Z,99477.50
2023-03-20T03:05:52.111Z,99430.38
2023-03-20T03:11:06.851Z,99437.53
2023-03-20T03:16:26.135Z,99469.19
2023-03-20T03:21:31.129Z,99451.00
2023-03-20T03:26:38.619Z,99479.78
2023-03-20T03:31:42.733Z,99467.56
2023-03-20T03:37:08.225Z,99480.69
2023-03-20T03:42:23.413Z,99497.06
2023-03-20T03:47:45.751Z,99499.59
2023-03-20T03:52:52.672Z,99478.13
2023-03-20T03:58:03.848Z,99499.75
2023-03-20T04:03:08.092Z,99499.13
2023-03-20T04:08:10.529Z,99479.53
2023-03-20T04:13:12.641Z,99485.38
2023-03-20T04:18:17.652Z,99475.63
2023-03-20T04:23:21.884Z,99489.31
2023-03-20T04:28:24.469Z,99477.78
2023-03-20T04:33:49.671Z,99466.97
2023-03-20T04:39:08.586Z,99483.00
2023-03-20T04:44:10.937Z,99505.97
2023-03-20T04:49:13.741Z,99515.25
2023-03-20T04:54:16.431Z,99507.53
2023-03-20T04:59:19.169Z,99510.28
2023-03-20T05:04:21.532Z,99494.19
2023-03-20T05:09:23.983Z,99472.69
2023-03-20T05:14:28.094Z,99507.56
2023-03-20T05:19:49.862Z,99506.41
2023-03-20T05:25:30.527Z,99520.13
2023-03-20T05:30:51.474Z,99476.88
2023-03-20T05:36:12.475Z,99513.38
2023-03-20T05:41:35.418Z,99547.25
2023-03-20T05:47:03.802Z,99504.09
2023-03-20T05:52:35.840Z,99517.53
2023-03-20T05:58:04.092Z,99565.78
2023-03-20T06:03:29.746Z,99504.69
2023-03-20T06:08:40.644Z,99566.47
2023-03-20T06:13:43.232Z,99563.72
2023-03-20T06:18:46.567Z,99539.75
2023-03-20T06:23:48.845Z,99548.75
2023-03-20T06:28:51.558Z,99566.81
2023-03-20T06:33:53.860Z,99526.44
2023-03-20T06:38:57.352Z,99577.78
2023-03-20T06:44:01.146Z,99573.81
2023-03-20T06:49:19.674Z,99536.16
2023-03-20T06:54:22.622Z,99582.22
2023-03-20T06:59:25.098Z,99572.66
2023-03-20T07:04:31.909Z,99575.88
2023-03-20T07:09:37.333Z,99579.38
2023-03-20T07:14:43.080Z,99601.56
2023-03-20T07:19:50.401Z,99570.72
2023-03-20T07:24:53.146Z,99632.34
2023-03-20T07:29:58.335Z,99623.22
2023-03-20T07:35:01.062Z,99630.84
2023-03-20T07:40:05.822Z,99642.03
2023-03-20T07:45:11.020Z,99657.09
2023-03-20T07:50:13.241Z,99642.63
2023-03-20T07:55:18.812Z,99643.59
2023-03-20T08:00:21.620Z,99663.88
2023-03-20T08:05:24.417Z,99632.81
2023-03-20T08:10:27.018Z,99597.47
2023-03-20T08:15:29.147Z,99594.72
2023-03-20T08:20:31.773Z,99659.94
2023-03-20T08:25:34.672Z,99625.19
2023-03-20T08:30:37.192Z,99650.13
2023-03-20T08:35:39.380Z,99627.47
2023-03-20T08:40:42.850Z,99667.13
2023-03-20T08:45:45.383Z,99627.69
2023-03-20T08:50:47.817Z,99658.16
2023-03-20T08:55:51.377Z,99653.78
2023-03-20T09:00:54.759Z,99655.84
2023-03-20T09:05:56.966Z,99663.75
2023-03-20T09:10:59.253Z,99674.00
2023-03-20T09:16:01.585Z,99665.31
2023-03-20T09:21:04.238Z,99714.59
2023-03-20T09:26:08.283Z,99730.69
2023-03-20T09:31:10.592Z,99698.50
2023-03-20T09:36:13.323Z,99698.19
2023-03-20T09:41:22.565Z,99732.34
2023-03-20T09:46:43.007Z,99721.44
2023-03-20T09:51:59.494Z,99687.91
2023-03-20T09:57:03.167Z,99726.06
2023-03-20T10:02:16.796Z,99697.97
2023-03-20T10:07:19.930Z,99752.44
2023-03-20T10:13:08.479Z,99718.75
2023-03-20T10:18:25.694Z,99735.09
2023-03-20T10:23:37.374Z,99737.03
2023-03-20T10:28:59.785Z,99761.53
2023-03-20T10:34:29.992Z,99722.59
2023-03-20T10:40:05.632Z,99769.66
2023-03-20T10:45:43.428Z,99765.00
2023-03-20T10:50:56.323Z,99738.59
2023-03-20T10:56:06.564Z,99750.97
2023-03-20T11:01:09.039Z,99718.53
2023-03-20T11:06:37.469Z,99734.19
2023-03-20T11:11:44.350Z,99764.13
2023-03-20T11:16:53.587Z,99737.44
2023-03-20T11:22:00.488Z,99724.97
2023-03-20T11:27:33.332Z,99744.78
2023-03-20T11:32:42.057Z,99729.59
2023-03-20T11:37:48.051Z,99726.41
2023-03-20T11:43:02.310Z,99742.41
2023-03-20T11:48:05.742Z,99756.38
2023-03-20T11:53:32.771Z,99731.13
2023-03-20T11:58:39.443Z,99732.03
2023-03-20T12:03:55.762Z,99708.66
2023-03-20T12:09:06.687Z,99708.16
2023-03-20T12:14:20.291Z,99713.75
2023-03-20T12:19:30.629Z,99673.25
2023-03-20T12:24:46.118Z,99658.25
2023-03-20T12:29:59.545Z,99627.13
2023-03-20T12:35:29.505Z,99625.53
2023-03-20T12:40:43.841Z,99620.25
2023-03-20T12:46:29.940Z,99649.28
2023-03-20T12:51:56.703Z,99667.63
2023-03-20T12:57:19.363Z,99650.75
2023-03-20T13:02:33.821Z,99698.72
2023-03-20T13:08:04.108Z,99607.06
2023-03-20T13:13:46.718Z,99627.41
2023-03-20T13:18:59.207Z,99602.81
2023-03-20T13:24:17.297Z,99639.31
2023-03-20T13:29:40.366Z,99621.03
2023-03-20T13:34:58.235Z,99648.06
2023-03-20T13:40:25.696Z,99588.56
2023-03-20T13:45:35.934Z,99620.22
2023-03-20T13:51:00.861Z,99653.97
2023-03-20T13:56:15.723Z,99559.19
2023-03-20T14:01:54.673Z,99565.56
2023-03-20T14:06:59.232Z,99600.03
2023-03-20T14:12:13.995Z,99614.31
2023-03-20T14:17:27.874Z,99514.06
2023-03-20T14:22:36.721Z,99573.50
2023-03-20T14:28:05.973Z,99574.25
2023-03-20T14:33:27.012Z,99554.41
2023-03-20T14:38:59.411Z,99491.75
2023-03-20T14:44:36.593Z,99473.09
2023-03-20T14:50:09.120Z,99543.31
2023-03-20T14:55:34.724Z,99510.88
2023-03-20T15:00:47.214Z,99529.50
2023-03-20T15:05:59.411Z,99600.47
2023-03-20T15:11:09.325Z,99489.09
2023-03-20T15:16:16.537Z,99489.47
2023-03-20T15:21:32.677Z,99491.84
2023-03-20T15:26:36.370Z,99556.03
2023-03-20T15:31:40.810Z,99549.72
2023-03-20T15:36:43.963Z,99548.94
2023-03-20T15:41:59.036Z,99516.81
2023-03-20T15:47:10.175Z,99476.38
2023-03-20T15:52:24.021Z,99515.19
2023-03-20T15:57:36.842Z,99493.41
2023-03-20T16:02:39.316Z,99543.28
2023-03-20T16:07:41.995Z,99440.72
2023-03-20T16:12:54.690Z,99468.84
2023-03-20T16:18:01.213Z,99515.59
2023-03-20T16:23:07.959Z,99425.31
2023-03-20T16:28:15.578Z,99438.78
2023-03-20T16:33:18.753Z,99377.44
2023-03-20T16:38:32.603Z,99417.41
2023-03-20T16:43:39.138Z,99437.22
2023-03-20T16:48:42.611Z,99425.31
2023-03-20T16:53:51.551Z,99354.81
2023-03-20T16:58:56.624Z,99338.47
2023-03-20T17:04:22.641Z,99430.38
2023-03-20T17:09:28.737Z,99432.84
2023-03-20T17:14:31.108Z,99408.59
2023-03-20T17:19:33.967Z,99361.88
2023-03-20T17:24:36.294Z,99351.63
2023-03-20T17:29:39.691Z,99343.53
2023-03-20T17:34:42.980Z,99427.53
2023-03-20T17:39:45.075Z,99279.19
2023-03-20T17:44:48.350Z,99280.22
2023-03-20T17:49:52.140Z,99300.31
2023-03-20T17:54:54.933Z,99269.09
2023-03-20T17:59:57.103Z,99307.25
2023-03-20T18:04:59.439Z,99293.69
2023-03-20T18:10:01.803Z,99395.44
2023-03-20T18:15:04.588Z,99298.63
2023-03-20T18:20:11.883Z,99380.75
2023-03-20T18:25:14.084Z,99255.47
2023-03-20T18:30:21.406Z,99239.50
2023-03-20T18:35:23.672Z,99328.84
2023-03-20T18:40:30.686Z,99308.59
2023-03-20T18:45:33.342Z,99295.56
2023-03-20T18:50:41.068Z,99259.69
2023-03-20T18:55:43.812Z,99362.19
2023-03-20T19:00:45.966Z,99354.16
2023-03-20T19:05:48.178Z,99357.41
2023-03-20T19:10:51.100Z,99323.44
2023-03-20T19:15:53.751Z,99377.22
2023-03-20T19:20:57.940Z,99317.44
2023-03-20T19:26:00.176Z,99281.66
2023-03-20T19:31:02.367Z,99326.53
2023-03-20T19:36:06.671Z,99213.41
2023-03-20T19:41:09.979Z,99299.88
2023-03-20T19:46:28.424Z,99302.25
2023-03-20T19:51:38.198Z,99360.00
2023-03-20T19:56:40.533Z,99314.00
2023-03-20T20:01:42.818Z,99321.50
2023-03-20T20:06:47.381Z,99308.09
2023-03-20T20:11:49.870Z,99236.19
2023-03-20T20:16:55.367Z,99236.75
2023-03-20T20:27:20.029Z,99203.78
2023-03-20T20:32:25.540Z,99314.75
2023-03-20T20:42:52.086Z,99239.16
2023-03-20T20:47:55.309Z,99187.53
2023-03-20T20:52:59.475Z,99205.19
2023-03-20T20:58:03.845Z,99204.72
2023-03-20T21:03:06.339Z,99241.59
2023-03-20T21:08:08.588Z,99155.41
2023-03-20T21:13:10.725Z,99117.91
2023-03-20T21:18:13.015Z,99226.63
2023-03-20T21:23:15.369Z,99282.69
2023-03-20T21:28:17.836Z,99307.25
2023-03-20T21:33:21.196Z,99188.22
2023-03-20T21:38:58.662Z,99241.59
2023-03-20T21:43:47.353Z,99230.47
2023-03-20T21:49:31.758Z,99196.69
2023-03-20T22:00:05.375Z,99248.13
2023-03-20T22:21:45.450Z,99333.75
2023-03-20T22:32:38.479Z,99332.50
2023-03-20T22:42:55.800Z,99296.63
2023-03-20T22:47:56.442Z,99286.88
2023-03-20T22:52:58.669Z,99283.16
2023-03-20T22:58:07.348Z,99210.44
2023-03-20T23:03:22.388Z,99235.69
2023-03-20T23:08:28.411Z,99272.59
2023-03-20T23:13:30.667Z,99250.47
2023-03-20T23:18:32.939Z,99270.25
2023-03-20T23:23:35.569Z,99217.06
2023-03-20T23:28:39.312Z,99234.53
2023-03-20T23:33:44.218Z,99138.69
2023-03-20T23:38:46.941Z,99146.56
2023-03-20T23:43:51.052Z,99137.75
2023-03-20T23:48:54.522Z,99199.41
2023-03-20T23:53:56.656Z,99133.91
2023-03-20T23:59:08.065Z,99194.63
